sensor_id;sensor_type;location;lat;lon;timestamp;temperature;humidity
19017;DHT22;9641;51.494;6.670;2023-07-20T00:00:59;18.20;52.50
19017;DHT22;9641;51.494;6.670;2023-07-20T00:03:26;18.20;54.50
19017;DHT22;9641;51.494;6.670;2023-07-20T00:05:53;18.20;39.90
19017;DHT22;9641;51.494;6.670;2023-07-20T00:08:20;18.10;48.10
19017;DHT22;9641;51.494;6.670;2023-07-20T00:10:47;18.10;65.70
19017;DHT22;9641;51.494;6.670;2023-07-20T00:13:14;18.10;76.20
19017;DHT22;9641;51.494;6.670;2023-07-20T00:15:44;18.10;64.60
19017;DHT22;9641;51.494;6.670;2023-07-20T00:18:12;18.10;73.50
19017;DHT22;9641;51.494;6.670;2023-07-20T00:20:39;18.20;61.10
19017;DHT22;9641;51.494;6.670;2023-07-20T00:23:06;18.10;73.50
19017;DHT22;9641;51.494;6.670;2023-07-20T00:25:34;18.20;84.00
19017;DHT22;9641;51.494;6.670;2023-07-20T00:28:00;18.20;65.60
19017;DHT22;9641;51.494;6.670;2023-07-20T00:30:28;18.20;59.90
19017;DHT22;9641;51.494;6.670;2023-07-20T00:33:12;18.20;84.00
19017;DHT22;9641;51.494;6.670;2023-07-20T00:35:39;18.20;65.30
19017;DHT22;9641;51.494;6.670;2023-07-20T00:38:06;18.10;75.00
19017;DHT22;9641;51.494;6.670;2023-07-20T00:40:36;18.10;64.10
19017;DHT22;9641;51.494;6.670;2023-07-20T00:43:03;18.00;94.70
19017;DHT22;9641;51.494;6.670;2023-07-20T00:45:30;18.00;99.50
19017;DHT22;9641;51.494;6.670;2023-07-20T00:47:57;17.90;99.90
19017;DHT22;9641;51.494;6.670;2023-07-20T00:50:26;17.90;99.90
19017;DHT22;9641;51.494;6.670;2023-07-20T00:52:55;17.80;99.90
19017;DHT22;9641;51.494;6.670;2023-07-20T00:55:22;17.70;99.90
19017;DHT22;9641;51.494;6.670;2023-07-20T00:57:51;17.70;99.90
19017;DHT22;9641;51.494;6.670;2023-07-20T01:00:20;17.70;99.90
19017;DHT22;9641;51.494;6.670;2023-07-20T01:02:46;17.60;99.90
19017;DHT22;9641;51.494;6.670;2023-07-20T01:05:14;17.60;99.90
19017;DHT22;9641;51.494;6.670;2023-07-20T01:07:50;17.50;99.90
19017;DHT22;9641;51.494;6.670;2023-07-20T01:10:27;17.50;99.90
19017;DHT22;9641;51.494;6.670;2023-07-20T01:12:56;17.40;99.90
19017;DHT22;9641;51.494;6.670;2023-07-20T01:15:23;17.40;99.90
19017;DHT22;9641;51.494;6.670;2023-07-20T01:17:50;17.40;99.90
19017;DHT22;9641;51.494;6.670;2023-07-20T01:20:20;17.40;99.90
19017;DHT22;9641;51.494;6.670;2023-07-20T01:23:19;17.40;99.90
19017;DHT22;9641;51.494;6.670;2023-07-20T01:26:07;17.40;99.90
19017;DHT22;9641;51.494;6.670;2023-07-20T01:28:57;17.40;99.90
19017;DHT22;9641;51.494;6.670;2023-07-20T01:31:36;17.40;99.90
19017;DHT22;9641;51.494;6.670;2023-07-20T01:34:05;17.50;99.90
19017;DHT22;9641;51.494;6.670;2023-07-20T01:36:36;17.50;99.90
19017;DHT22;9641;51.494;6.670;2023-07-20T01:39:08;17.60;99.90
19017;DHT22;9641;51.494;6.670;2023-07-20T01:41:41;17.60;99.90
19017;DHT22;9641;51.494;6.670;2023-07-20T01:44:09;17.60;99.90
19017;DHT22;9641;51.494;6.670;2023-07-20T01:46:38;17.40;99.90
19017;DHT22;9641;51.494;6.670;2023-07-20T01:49:05;17.30;99.90
19017;DHT22;9641;51.494;6.670;2023-07-20T01:51:32;17.30;99.90
19017;DHT22;9641;51.494;6.670;2023-07-20T01:53:58;17.20;99.90
19017;DHT22;9641;51.494;6.670;2023-07-20T01:56:26;17.20;99.90
19017;DHT22;9641;51.494;6.670;2023-07-20T01:58:53;17.20;99.90
19017;DHT22;9641;51.494;6.670;2023-07-20T02:01:19;17.10;99.90
19017;DHT22;9641;51.494;6.670;2023-07-20T02:03:51;17.10;99.90
19017;DHT22;9641;51.494;6.670;2023-07-20T02:06:18;17.10;99.90
19017;DHT22;9641;51.494;6.670;2023-07-20T02:08:48;17.10;99.90
19017;DHT22;9641;51.494;6.670;2023-07-20T02:11:15;17.00;99.90
19017;DHT22;9641;51.494;6.670;2023-07-20T02:13:41;16.90;99.90
19017;DHT22;9641;51.494;6.670;2023-07-20T02:16:08;16.90;99.90
19017;DHT22;9641;51.494;6.670;2023-07-20T02:18:37;16.80;99.90
19017;DHT22;9641;51.494;6.670;2023-07-20T02:21:05;16.70;99.90
19017;DHT22;9641;51.494;6.670;2023-07-20T02:23:32;16.70;99.90
19017;DHT22;9641;51.494;6.670;2023-07-20T02:26:00;16.70;99.90
19017;DHT22;9641;51.494;6.670;2023-07-20T02:28:27;16.80;99.90
19017;DHT22;9641;51.494;6.670;2023-07-20T02:30:55;16.80;99.90
19017;DHT22;9641;51.494;6.670;2023-07-20T02:33:26;16.70;99.90
19017;DHT22;9641;51.494;6.670;2023-07-20T02:35:53;16.70;99.90
19017;DHT22;9641;51.494;6.670;2023-07-20T02:38:21;16.70;99.90
19017;DHT22;9641;51.494;6.670;2023-07-20T02:40:48;16.70;99.90
19017;DHT22;9641;51.494;6.670;2023-07-20T02:43:15;16.70;99.90
19017;DHT22;9641;51.494;6.670;2023-07-20T02:45:42;16.70;99.90
19017;DHT22;9641;51.494;6.670;2023-07-20T02:48:09;16.70;99.90
19017;DHT22;9641;51.494;6.670;2023-07-20T02:50:36;16.70;99.90
19017;DHT22;9641;51.494;6.670;2023-07-20T02:53:02;16.70;99.90
19017;DHT22;9641;51.494;6.670;2023-07-20T02:55:31;16.70;99.90
19017;DHT22;9641;51.494;6.670;2023-07-20T02:57:57;16.70;99.90
19017;DHT22;9641;51.494;6.670;2023-07-20T03:00:24;16.70;99.90
19017;DHT22;9641;51.494;6.670;2023-07-20T03:02:51;16.70;99.90
19017;DHT22;9641;51.494;6.670;2023-07-20T03:05:21;16.70;99.90
19017;DHT22;9641;51.494;6.670;2023-07-20T03:07:49;16.70;99.90
19017;DHT22;9641;51.494;6.670;2023-07-20T03:10:16;16.70;99.90
19017;DHT22;9641;51.494;6.670;2023-07-20T03:12:44;16.70;99.90
19017;DHT22;9641;51.494;6.670;2023-07-20T03:15:11;16.70;99.90
19017;DHT22;9641;51.494;6.670;2023-07-20T03:17:39;16.80;99.90
19017;DHT22;9641;51.494;6.670;2023-07-20T03:20:07;16.80;99.90
19017;DHT22;9641;51.494;6.670;2023-07-20T03:22:36;16.80;99.90
19017;DHT22;9641;51.494;6.670;2023-07-20T03:25:03;16.80;99.90
19017;DHT22;9641;51.494;6.670;2023-07-20T03:27:31;16.80;99.90
19017;DHT22;9641;51.494;6.670;2023-07-20T03:30:01;16.70;99.90
19017;DHT22;9641;51.494;6.670;2023-07-20T03:32:28;16.60;99.90
19017;DHT22;9641;51.494;6.670;2023-07-20T03:34:55;16.60;99.90
19017;DHT22;9641;51.494;6.670;2023-07-20T03:37:22;16.60;99.90
19017;DHT22;9641;51.494;6.670;2023-07-20T03:39:48;16.60;99.90
19017;DHT22;9641;51.494;6.670;2023-07-20T03:42:15;16.60;99.90
19017;DHT22;9641;51.494;6.670;2023-07-20T03:44:42;16.60;99.90
19017;DHT22;9641;51.494;6.670;2023-07-20T03:47:11;16.60;99.90
19017;DHT22;9641;51.494;6.670;2023-07-20T03:49:38;16.60;99.90
19017;DHT22;9641;51.494;6.670;2023-07-20T03:52:06;16.60;99.90
19017;DHT22;9641;51.494;6.670;2023-07-20T03:54:32;16.60;99.90
19017;DHT22;9641;51.494;6.670;2023-07-20T03:56:59;16.60;99.90
19017;DHT22;9641;51.494;6.670;2023-07-20T03:59:27;16.60;99.90
19017;DHT22;9641;51.494;6.670;2023-07-20T04:01:54;16.60;99.90
19017;DHT22;9641;51.494;6.670;2023-07-20T04:04:22;16.60;99.90
19017;DHT22;9641;51.494;6.670;2023-07-20T04:06:49;16.60;99.90
19017;DHT22;9641;51.494;6.670;2023-07-20T04:09:16;16.60;99.90
19017;DHT22;9641;51.494;6.670;2023-07-20T04:11:43;16.60;99.90
19017;DHT22;9641;51.494;6.670;2023-07-20T04:14:10;16.50;99.90
19017;DHT22;9641;51.494;6.670;2023-07-20T04:16:36;16.50;99.90
19017;DHT22;9641;51.494;6.670;2023-07-20T04:19:04;16.50;99.90
19017;DHT22;9641;51.494;6.670;2023-07-20T04:21:33;16.50;99.90
19017;DHT22;9641;51.494;6.670;2023-07-20T04:24:00;16.40;99.90
19017;DHT22;9641;51.494;6.670;2023-07-20T04:26:26;16.50;99.90
19017;DHT22;9641;51.494;6.670;2023-07-20T04:28:53;16.50;99.90
19017;DHT22;9641;51.494;6.670;2023-07-20T04:31:35;16.50;99.90
19017;DHT22;9641;51.494;6.670;2023-07-20T04:34:04;16.50;99.90
19017;DHT22;9641;51.494;6.670;2023-07-20T04:36:36;16.50;99.90
19017;DHT22;9641;51.494;6.670;2023-07-20T04:39:04;16.50;99.90
19017;DHT22;9641;51.494;6.670;2023-07-20T04:41:38;16.50;99.90
19017;DHT22;9641;51.494;6.670;2023-07-20T04:44:05;16.50;99.90
19017;DHT22;9641;51.494;6.670;2023-07-20T04:46:32;16.60;99.90
19017;DHT22;9641;51.494;6.670;2023-07-20T04:49:01;16.50;99.90
19017;DHT22;9641;51.494;6.670;2023-07-20T04:51:30;16.60;99.90
19017;DHT22;9641;51.494;6.670;2023-07-20T04:53:59;16.50;99.90
19017;DHT22;9641;51.494;6.670;2023-07-20T04:56:30;16.60;99.90
19017;DHT22;9641;51.494;6.670;2023-07-20T04:58:57;16.60;99.90
19017;DHT22;9641;51.494;6.670;2023-07-20T05:01:24;16.60;99.90
19017;DHT22;9641;51.494;6.670;2023-07-20T05:03:52;16.70;99.90
19017;DHT22;9641;51.494;6.670;2023-07-20T05:06:19;16.70;99.90
19017;DHT22;9641;51.494;6.670;2023-07-20T05:08:46;16.70;99.90
19017;DHT22;9641;51.494;6.670;2023-07-20T05:11:15;16.70;99.90
19017;DHT22;9641;51.494;6.670;2023-07-20T05:13:42;16.60;99.90
19017;DHT22;9641;51.494;6.670;2023-07-20T05:16:08;16.60;99.90
19017;DHT22;9641;51.494;6.670;2023-07-20T05:18:36;16.60;99.90
19017;DHT22;9641;51.494;6.670;2023-07-20T05:21:03;16.60;99.90
19017;DHT22;9641;51.494;6.670;2023-07-20T05:23:30;16.50;99.90
19017;DHT22;9641;51.494;6.670;2023-07-20T05:25:58;16.70;99.90
19017;DHT22;9641;51.494;6.670;2023-07-20T05:28:26;16.80;99.90
19017;DHT22;9641;51.494;6.670;2023-07-20T05:30:53;16.90;99.90
19017;DHT22;9641;51.494;6.670;2023-07-20T05:33:21;17.00;99.90
19017;DHT22;9641;51.494;6.670;2023-07-20T05:35:48;17.10;99.90
19017;DHT22;9641;51.494;6.670;2023-07-20T05:38:15;17.30;99.90
19017;DHT22;9641;51.494;6.670;2023-07-20T05:40:43;17.30;99.90
19017;DHT22;9641;51.494;6.670;2023-07-20T05:43:10;17.30;99.90
19017;DHT22;9641;51.494;6.670;2023-07-20T05:45:41;17.30;99.90
19017;DHT22;9641;51.494;6.670;2023-07-20T05:48:08;17.40;99.90
19017;DHT22;9641;51.494;6.670;2023-07-20T05:50:37;17.50;99.90
19017;DHT22;9641;51.494;6.670;2023-07-20T05:53:04;17.60;99.90
19017;DHT22;9641;51.494;6.670;2023-07-20T05:55:31;17.80;99.90
19017;DHT22;9641;51.494;6.670;2023-07-20T05:57:58;17.90;99.90
19017;DHT22;9641;51.494;6.670;2023-07-20T06:00:25;17.80;99.90
19017;DHT22;9641;51.494;6.670;2023-07-20T06:02:53;17.50;99.90
19017;DHT22;9641;51.494;6.670;2023-07-20T06:05:21;17.40;99.90
19017;DHT22;9641;51.494;6.670;2023-07-20T06:07:49;17.40;99.90
19017;DHT22;9641;51.494;6.670;2023-07-20T06:10:16;17.20;99.90
19017;DHT22;9641;51.494;6.670;2023-07-20T06:12:42;17.20;99.90
19017;DHT22;9641;51.494;6.670;2023-07-20T06:15:25;17.10;99.90
19017;DHT22;9641;51.494;6.670;2023-07-20T06:17:54;17.10;99.90
19017;DHT22;9641;51.494;6.670;2023-07-20T06:20:21;17.20;99.90
19017;DHT22;9641;51.494;6.670;2023-07-20T06:22:48;17.20;99.90
19017;DHT22;9641;51.494;6.670;2023-07-20T06:25:15;17.20;99.90
19017;DHT22;9641;51.494;6.670;2023-07-20T06:27:42;17.30;99.90
19017;DHT22;9641;51.494;6.670;2023-07-20T06:30:10;17.40;99.90
19017;DHT22;9641;51.494;6.670;2023-07-20T06:32:37;17.40;99.90
19017;DHT22;9641;51.494;6.670;2023-07-20T06:35:06;17.50;99.90
19017;DHT22;9641;51.494;6.670;2023-07-20T06:37:34;17.50;99.90
19017;DHT22;9641;51.494;6.670;2023-07-20T06:40:02;17.50;99.90
19017;DHT22;9641;51.494;6.670;2023-07-20T06:42:29;17.50;99.90
19017;DHT22;9641;51.494;6.670;2023-07-20T06:44:56;17.40;99.90
19017;DHT22;9641;51.494;6.670;2023-07-20T06:47:23;17.40;99.90
19017;DHT22;9641;51.494;6.670;2023-07-20T06:49:50;17.40;99.90
19017;DHT22;9641;51.494;6.670;2023-07-20T06:52:19;17.20;99.90
19017;DHT22;9641;51.494;6.670;2023-07-20T06:54:45;17.00;99.90
19017;DHT22;9641;51.494;6.670;2023-07-20T06:57:22;17.00;99.90
19017;DHT22;9641;51.494;6.670;2023-07-20T06:59:53;16.90;99.90
19017;DHT22;9641;51.494;6.670;2023-07-20T07:02:36;16.90;99.90
19017;DHT22;9641;51.494;6.670;2023-07-20T07:05:07;16.90;99.90
19017;DHT22;9641;51.494;6.670;2023-07-20T07:07:38;16.80;99.90
19017;DHT22;9641;51.494;6.670;2023-07-20T07:10:07;16.80;99.90
19017;DHT22;9641;51.494;6.670;2023-07-20T07:12:34;16.70;99.90
19017;DHT22;9641;51.494;6.670;2023-07-20T07:15:01;16.80;99.90
19017;DHT22;9641;51.494;6.670;2023-07-20T07:17:27;16.90;99.90
19017;DHT22;9641;51.494;6.670;2023-07-20T07:19:55;17.00;99.90
19017;DHT22;9641;51.494;6.670;2023-07-20T07:22:22;17.20;99.90
19017;DHT22;9641;51.494;6.670;2023-07-20T07:24:50;17.20;99.90
19017;DHT22;9641;51.494;6.670;2023-07-20T07:27:17;17.40;99.90
19017;DHT22;9641;51.494;6.670;2023-07-20T07:29:44;17.40;99.90
19017;DHT22;9641;51.494;6.670;2023-07-20T07:32:12;17.60;99.90
19017;DHT22;9641;51.494;6.670;2023-07-20T07:34:40;17.70;99.90
19017;DHT22;9641;51.494;6.670;2023-07-20T07:37:07;17.90;99.90
19017;DHT22;9641;51.494;6.670;2023-07-20T07:39:34;17.90;99.90
19017;DHT22;9641;51.494;6.670;2023-07-20T07:42:03;18.00;99.90
19017;DHT22;9641;51.494;6.670;2023-07-20T07:44:29;18.10;99.90
19017;DHT22;9641;51.494;6.670;2023-07-20T07:46:56;18.20;99.90
19017;DHT22;9641;51.494;6.670;2023-07-20T07:49:23;18.30;99.90
19017;DHT22;9641;51.494;6.670;2023-07-20T07:51:50;18.40;99.90
19017;DHT22;9641;51.494;6.670;2023-07-20T07:54:17;18.50;99.90
19017;DHT22;9641;51.494;6.670;2023-07-20T07:56:44;18.50;99.90
19017;DHT22;9641;51.494;6.670;2023-07-20T07:59:12;18.60;99.90
19017;DHT22;9641;51.494;6.670;2023-07-20T08:01:39;18.70;99.90
19017;DHT22;9641;51.494;6.670;2023-07-20T08:04:06;18.70;99.90
19017;DHT22;9641;51.494;6.670;2023-07-20T08:06:34;18.70;99.90
19017;DHT22;9641;51.494;6.670;2023-07-20T08:09:01;18.70;99.90
19017;DHT22;9641;51.494;6.670;2023-07-20T08:11:28;18.70;99.90
19017;DHT22;9641;51.494;6.670;2023-07-20T08:13:56;18.60;99.90
19017;DHT22;9641;51.494;6.670;2023-07-20T08:16:25;18.70;99.90
19017;DHT22;9641;51.494;6.670;2023-07-20T08:18:51;18.80;99.90
19017;DHT22;9641;51.494;6.670;2023-07-20T08:21:18;18.70;99.90
19017;DHT22;9641;51.494;6.670;2023-07-20T08:23:45;18.60;99.90
19017;DHT22;9641;51.494;6.670;2023-07-20T08:26:12;18.50;99.90
19017;DHT22;9641;51.494;6.670;2023-07-20T08:28:40;18.50;99.90
19017;DHT22;9641;51.494;6.670;2023-07-20T08:31:07;18.50;91.90
19017;DHT22;9641;51.494;6.670;2023-07-20T08:33:35;18.40;78.50
19017;DHT22;9641;51.494;6.670;2023-07-20T08:36:02;18.40;97.60
19017;DHT22;9641;51.494;6.670;2023-07-20T08:38:29;18.40;14.60
19017;DHT22;9641;51.494;6.670;2023-07-20T08:40:56;18.50;1.00
19017;DHT22;9641;51.494;6.670;2023-07-20T08:43:26;18.50;60.50
19017;DHT22;9641;51.494;6.670;2023-07-20T08:45:55;18.70;99.90
19017;DHT22;9641;51.494;6.670;2023-07-20T08:48:22;18.90;99.90
19017;DHT22;9641;51.494;6.670;2023-07-20T08:50:51;19.10;82.50
19017;DHT22;9641;51.494;6.670;2023-07-20T08:53:19;19.20;28.20
19017;DHT22;9641;51.494;6.670;2023-07-20T08:55:50;19.20;88.60
19017;DHT22;9641;51.494;6.670;2023-07-20T08:58:17;19.10;99.90
19017;DHT22;9641;51.494;6.670;2023-07-20T09:00:45;19.00;99.90
19017;DHT22;9641;51.494;6.670;2023-07-20T09:03:12;18.90;99.90
19017;DHT22;9641;51.494;6.670;2023-07-20T09:05:39;18.80;97.70
19017;DHT22;9641;51.494;6.670;2023-07-20T09:08:08;18.80;99.90
19017;DHT22;9641;51.494;6.670;2023-07-20T09:10:35;18.90;99.90
19017;DHT22;9641;51.494;6.670;2023-07-20T09:13:02;19.10;62.50
19017;DHT22;9641;51.494;6.670;2023-07-20T09:15:29;19.20;1.00
19017;DHT22;9641;51.494;6.670;2023-07-20T09:17:56;19.40;1.00
19017;DHT22;9641;51.494;6.670;2023-07-20T09:20:23;19.60;1.00
19017;DHT22;9641;51.494;6.670;2023-07-20T09:22:51;19.40;99.90
19017;DHT22;9641;51.494;6.670;2023-07-20T09:25:19;19.30;1.00
19017;DHT22;9641;51.494;6.670;2023-07-20T09:27:47;19.20;1.00
19017;DHT22;9641;51.494;6.670;2023-07-20T09:30:15;19.20;1.70
19017;DHT22;9641;51.494;6.670;2023-07-20T09:32:44;19.40;1.00
19017;DHT22;9641;51.494;6.670;2023-07-20T09:35:15;19.60;1.00
19017;DHT22;9641;51.494;6.670;2023-07-20T09:37:50;19.70;99.90
19017;DHT22;9641;51.494;6.670;2023-07-20T09:40:20;19.80;99.90
19017;DHT22;9641;51.494;6.670;2023-07-20T09:42:53;19.80;99.90
19017;DHT22;9641;51.494;6.670;2023-07-20T09:45:29;19.60;2.70
19017;DHT22;9641;51.494;6.670;2023-07-20T09:48:03;19.40;1.00
19017;DHT22;9641;51.494;6.670;2023-07-20T09:50:30;19.60;1.00
19017;DHT22;9641;51.494;6.670;2023-07-20T09:52:58;19.70;1.00
19017;DHT22;9641;51.494;6.670;2023-07-20T09:55:29;19.90;1.00
19017;DHT22;9641;51.494;6.670;2023-07-20T09:57:57;20.00;1.00
19017;DHT22;9641;51.494;6.670;2023-07-20T10:00:24;20.10;1.00
19017;DHT22;9641;51.494;6.670;2023-07-20T10:02:52;20.20;1.00
19017;DHT22;9641;51.494;6.670;2023-07-20T10:05:19;20.40;1.00
19017;DHT22;9641;51.494;6.670;2023-07-20T10:07:48;20.30;1.00
19017;DHT22;9641;51.494;6.670;2023-07-20T10:10:17;20.60;99.90
19017;DHT22;9641;51.494;6.670;2023-07-20T10:12:47;20.60;33.70
19017;DHT22;9641;51.494;6.670;2023-07-20T10:15:19;20.50;1.00
19017;DHT22;9641;51.494;6.670;2023-07-20T10:17:53;20.40;1.00
19017;DHT22;9641;51.494;6.670;2023-07-20T10:20:25;20.20;1.00
19017;DHT22;9641;51.494;6.670;2023-07-20T10:22:54;20.20;99.90
19017;DHT22;9641;51.494;6.670;2023-07-20T10:25:23;20.20;1.00
19017;DHT22;9641;51.494;6.670;2023-07-20T10:27:51;20.30;1.00
19017;DHT22;9641;51.494;6.670;2023-07-20T10:30:18;20.30;1.00
19017;DHT22;9641;51.494;6.670;2023-07-20T10:32:47;20.30;1.00
19017;DHT22;9641;51.494;6.670;2023-07-20T10:35:16;20.40;1.00
19017;DHT22;9641;51.494;6.670;2023-07-20T10:37:51;20.70;1.00
19017;DHT22;9641;51.494;6.670;2023-07-20T10:40:26;20.90;99.90
19017;DHT22;9641;51.494;6.670;2023-07-20T10:42:58;21.20;95.90
19017;DHT22;9641;51.494;6.670;2023-07-20T10:45:42;21.50;1.00
19017;DHT22;9641;51.494;6.670;2023-07-20T10:48:13;21.60;1.00
19017;DHT22;9641;51.494;6.670;2023-07-20T10:50:41;21.80;1.00
19017;DHT22;9641;51.494;6.670;2023-07-20T10:53:12;21.70;1.00
19017;DHT22;9641;51.494;6.670;2023-07-20T10:55:39;21.80;1.00
19017;DHT22;9641;51.494;6.670;2023-07-20T10:58:09;21.80;1.00
19017;DHT22;9641;51.494;6.670;2023-07-20T11:00:37;21.80;1.00
19017;DHT22;9641;51.494;6.670;2023-07-20T11:03:04;21.70;1.00
19017;DHT22;9641;51.494;6.670;2023-07-20T11:05:38;21.40;1.00
19017;DHT22;9641;51.494;6.670;2023-07-20T11:08:09;21.10;1.00
19017;DHT22;9641;51.494;6.670;2023-07-20T11:10:36;20.90;1.00
19017;DHT22;9641;51.494;6.670;2023-07-20T11:13:23;20.90;1.00
19017;DHT22;9641;51.494;6.670;2023-07-20T11:16:04;20.80;1.00
19017;DHT22;9641;51.494;6.670;2023-07-20T11:18:34;21.10;1.00
19017;DHT22;9641;51.494;6.670;2023-07-20T11:21:10;21.30;1.00
19017;DHT22;9641;51.494;6.670;2023-07-20T11:23:38;21.60;53.70
19017;DHT22;9641;51.494;6.670;2023-07-20T11:26:05;21.90;1.00
19017;DHT22;9641;51.494;6.670;2023-07-20T11:28:35;22.00;1.00
19017;DHT22;9641;51.494;6.670;2023-07-20T11:31:02;22.50;1.00
19017;DHT22;9641;51.494;6.670;2023-07-20T11:33:29;22.80;1.00
19017;DHT22;9641;51.494;6.670;2023-07-20T11:35:56;23.10;1.00
19017;DHT22;9641;51.494;6.670;2023-07-20T11:38:24;23.40;1.00
19017;DHT22;9641;51.494;6.670;2023-07-20T11:40:51;23.60;1.00
19017;DHT22;9641;51.494;6.670;2023-07-20T11:43:18;23.80;1.00
19017;DHT22;9641;51.494;6.670;2023-07-20T11:45:48;24.00;99.90
19017;DHT22;9641;51.494;6.670;2023-07-20T11:48:15;24.00;99.90
19017;DHT22;9641;51.494;6.670;2023-07-20T11:50:42;23.50;99.90
19017;DHT22;9641;51.494;6.670;2023-07-20T11:53:09;23.00;99.90
19017;DHT22;9641;51.494;6.670;2023-07-20T11:55:38;22.70;99.90
19017;DHT22;9641;51.494;6.670;2023-07-20T11:58:05;22.40;99.90
19017;DHT22;9641;51.494;6.670;2023-07-20T12:00:33;22.00;99.90
19017;DHT22;9641;51.494;6.670;2023-07-20T12:03:04;21.70;99.90
19017;DHT22;9641;51.494;6.670;2023-07-20T12:05:32;21.80;1.00
19017;DHT22;9641;51.494;6.670;2023-07-20T12:08:00;22.20;1.00
19017;DHT22;9641;51.494;6.670;2023-07-20T12:10:28;22.20;1.00
19017;DHT22;9641;51.494;6.670;2023-07-20T12:13:01;22.40;1.00
19017;DHT22;9641;51.494;6.670;2023-07-20T12:15:28;22.20;1.00
19017;DHT22;9641;51.494;6.670;2023-07-20T12:17:56;22.10;1.00
19017;DHT22;9641;51.494;6.670;2023-07-20T12:20:30;22.20;1.00
19017;DHT22;9641;51.494;6.670;2023-07-20T12:22:59;22.10;1.00
19017;DHT22;9641;51.494;6.670;2023-07-20T12:25:33;22.30;1.00
19017;DHT22;9641;51.494;6.670;2023-07-20T12:28:01;22.60;1.00
19017;DHT22;9641;51.494;6.670;2023-07-20T12:30:29;23.30;1.00
19017;DHT22;9641;51.494;6.670;2023-07-20T12:32:56;24.10;1.00
19017;DHT22;9641;51.494;6.670;2023-07-20T12:35:23;24.60;99.90
19017;DHT22;9641;51.494;6.670;2023-07-20T12:37:51;24.50;99.90
19017;DHT22;9641;51.494;6.670;2023-07-20T12:40:19;24.10;99.90
19017;DHT22;9641;51.494;6.670;2023-07-20T12:42:46;23.60;99.90
19017;DHT22;9641;51.494;6.670;2023-07-20T12:45:13;23.10;99.90
19017;DHT22;9641;51.494;6.670;2023-07-20T12:47:40;22.90;99.90
19017;DHT22;9641;51.494;6.670;2023-07-20T12:50:07;22.70;99.90
19017;DHT22;9641;51.494;6.670;2023-07-20T12:52:36;22.50;99.90
19017;DHT22;9641;51.494;6.670;2023-07-20T12:55:07;22.30;99.90
19017;DHT22;9641;51.494;6.670;2023-07-20T12:57:34;22.20;99.90
19017;DHT22;9641;51.494;6.670;2023-07-20T13:00:02;22.30;99.90
19017;DHT22;9641;51.494;6.670;2023-07-20T13:02:30;22.40;99.90
19017;DHT22;9641;51.494;6.670;2023-07-20T13:04:57;22.90;99.90
19017;DHT22;9641;51.494;6.670;2023-07-20T13:07:32;23.50;99.90
19017;DHT22;9641;51.494;6.670;2023-07-20T13:10:00;24.40;99.90
19017;DHT22;9641;51.494;6.670;2023-07-20T13:12:29;25.00;99.90
19017;DHT22;9641;51.494;6.670;2023-07-20T13:14:57;24.70;99.90
19017;DHT22;9641;51.494;6.670;2023-07-20T13:17:26;24.30;99.90
19017;DHT22;9641;51.494;6.670;2023-07-20T13:19:53;24.00;99.90
19017;DHT22;9641;51.494;6.670;2023-07-20T13:22:20;23.80;99.90
19017;DHT22;9641;51.494;6.670;2023-07-20T13:24:49;23.50;99.90
19017;DHT22;9641;51.494;6.670;2023-07-20T13:27:16;23.40;99.90
19017;DHT22;9641;51.494;6.670;2023-07-20T13:29:44;23.40;99.90
19017;DHT22;9641;51.494;6.670;2023-07-20T13:32:13;23.70;99.90
19017;DHT22;9641;51.494;6.670;2023-07-20T13:34:40;24.00;99.90
19017;DHT22;9641;51.494;6.670;2023-07-20T13:37:07;24.00;99.90
19017;DHT22;9641;51.494;6.670;2023-07-20T13:39:35;24.10;99.90
19017;DHT22;9641;51.494;6.670;2023-07-20T13:42:04;24.10;99.90
19017;DHT22;9641;51.494;6.670;2023-07-20T13:44:31;24.40;99.90
19017;DHT22;9641;51.494;6.670;2023-07-20T13:47:04;24.40;99.90
19017;DHT22;9641;51.494;6.670;2023-07-20T13:49:31;24.20;99.90
19017;DHT22;9641;51.494;6.670;2023-07-20T13:51:59;24.10;99.90
19017;DHT22;9641;51.494;6.670;2023-07-20T13:54:28;24.00;99.90
19017;DHT22;9641;51.494;6.670;2023-07-20T13:56:54;23.60;99.90
19017;DHT22;9641;51.494;6.670;2023-07-20T13:59:22;23.20;99.90
19017;DHT22;9641;51.494;6.670;2023-07-20T14:01:49;23.00;99.90
19017;DHT22;9641;51.494;6.670;2023-07-20T14:04:17;22.80;99.90
19017;DHT22;9641;51.494;6.670;2023-07-20T14:06:44;22.70;99.90
19017;DHT22;9641;51.494;6.670;2023-07-20T14:09:12;22.60;99.90
19017;DHT22;9641;51.494;6.670;2023-07-20T14:11:40;22.50;99.90
19017;DHT22;9641;51.494;6.670;2023-07-20T14:14:07;22.50;99.90
19017;DHT22;9641;51.494;6.670;2023-07-20T14:16:36;22.60;99.90
19017;DHT22;9641;51.494;6.670;2023-07-20T14:19:03;22.70;99.90
19017;DHT22;9641;51.494;6.670;2023-07-20T14:21:34;23.10;99.90
19017;DHT22;9641;51.494;6.670;2023-07-20T14:24:01;23.50;99.90
19017;DHT22;9641;51.494;6.670;2023-07-20T14:26:29;24.00;99.90
19017;DHT22;9641;51.494;6.670;2023-07-20T14:28:56;24.80;99.90
19017;DHT22;9641;51.494;6.670;2023-07-20T14:31:23;26.00;99.90
19017;DHT22;9641;51.494;6.670;2023-07-20T14:33:50;26.70;99.90
19017;DHT22;9641;51.494;6.670;2023-07-20T14:36:17;26.80;99.90
19017;DHT22;9641;51.494;6.670;2023-07-20T14:38:46;26.60;99.90
19017;DHT22;9641;51.494;6.670;2023-07-20T14:41:13;26.20;99.90
19017;DHT22;9641;51.494;6.670;2023-07-20T14:43:41;25.80;99.90
19017;DHT22;9641;51.494;6.670;2023-07-20T14:46:08;25.40;99.90
19017;DHT22;9641;51.494;6.670;2023-07-20T14:48:36;25.00;99.90
19017;DHT22;9641;51.494;6.670;2023-07-20T14:51:03;24.70;99.90
19017;DHT22;9641;51.494;6.670;2023-07-20T14:53:30;24.40;99.90
19017;DHT22;9641;51.494;6.670;2023-07-20T14:56:02;24.20;99.90
19017;DHT22;9641;51.494;6.670;2023-07-20T14:58:29;24.00;99.90
19017;DHT22;9641;51.494;6.670;2023-07-20T15:00:56;23.90;99.90
19017;DHT22;9641;51.494;6.670;2023-07-20T15:03:23;24.00;99.90
19017;DHT22;9641;51.494;6.670;2023-07-20T15:05:50;24.60;99.90
19017;DHT22;9641;51.494;6.670;2023-07-20T15:08:17;25.10;99.90
19017;DHT22;9641;51.494;6.670;2023-07-20T15:10:45;25.80;99.90
19017;DHT22;9641;51.494;6.670;2023-07-20T15:13:14;26.80;99.90
19017;DHT22;9641;51.494;6.670;2023-07-20T15:15:41;27.90;99.90
19017;DHT22;9641;51.494;6.670;2023-07-20T15:18:08;28.40;99.90
19017;DHT22;9641;51.494;6.670;2023-07-20T15:20:35;28.10;99.90
19017;DHT22;9641;51.494;6.670;2023-07-20T15:23:02;27.60;99.90
19017;DHT22;9641;51.494;6.670;2023-07-20T15:25:29;27.10;99.90
19017;DHT22;9641;51.494;6.670;2023-07-20T15:27:56;27.60;99.90
19017;DHT22;9641;51.494;6.670;2023-07-20T15:30:27;28.60;99.90
19017;DHT22;9641;51.494;6.670;2023-07-20T15:32:55;29.90;99.90
19017;DHT22;9641;51.494;6.670;2023-07-20T15:35:23;31.00;99.90
19017;DHT22;9641;51.494;6.670;2023-07-20T15:37:50;31.70;99.90
19017;DHT22;9641;51.494;6.670;2023-07-20T15:40:17;32.40;99.90
19017;DHT22;9641;51.494;6.670;2023-07-20T15:42:44;32.60;99.90
19017;DHT22;9641;51.494;6.670;2023-07-20T15:45:11;31.80;99.90
19017;DHT22;9641;51.494;6.670;2023-07-20T15:47:41;31.50;99.90
19017;DHT22;9641;51.494;6.670;2023-07-20T15:50:09;31.00;86.80
19017;DHT22;9641;51.494;6.670;2023-07-20T15:52:36;31.00;79.50
19017;DHT22;9641;51.494;6.670;2023-07-20T15:55:05;31.30;67.60